createdAt,value
2022-10-15T09:03:47.851Z,101.25
2022-10-15T09:04:47.758Z,101.25
2022-10-15T09:05:47.679Z,101.25
2022-10-15T09:06:47.608Z,101.25
2022-10-15T09:07:50.841Z,95.63
2022-10-15T09:08:47.457Z,118.13
2022-10-15T09:09:47.630Z,129.38
2022-10-15T09:10:47.305Z,140.63
2022-10-15T09:11:47.229Z,157.50
2022-10-15T09:12:47.154Z,146.25
2022-10-15T09:13:47.078Z,146.25
2022-10-15T09:14:47.003Z,157.50
2022-10-15T09:15:46.926Z,168.75
2022-10-15T09:16:46.851Z,208.13
2022-10-15T09:17:46.776Z,208.13
2022-10-15T09:18:46.698Z,168.75
2022-10-15T09:19:46.641Z,180.00
2022-10-15T09:20:46.551Z,163.13
2022-10-15T09:21:46.507Z,151.88
2022-10-15T09:22:46.434Z,146.25
2022-10-15T09:23:46.321Z,146.25
2022-10-15T09:24:46.247Z,191.25
2022-10-15T09:25:46.172Z,163.13
2022-10-15T09:26:46.098Z,163.13
2022-10-15T09:27:46.019Z,202.50
2022-10-15T09:28:46.026Z,253.13
2022-10-15T09:29:45.869Z,286.88
2022-10-15T09:30:45.794Z,258.75
2022-10-15T09:31:45.742Z,208.13
2022-10-15T09:32:47.534Z,270.00
2022-10-15T09:33:45.565Z,225.00
2022-10-15T09:34:45.490Z,213.75
2022-10-15T09:35:45.431Z,219.38
2022-10-15T09:36:45.340Z,247.50
2022-10-15T09:37:45.266Z,247.50
2022-10-15T09:38:45.190Z,236.25
2022-10-15T09:39:45.114Z,258.75
2022-10-15T09:40:45.042Z,213.75
2022-10-15T09:41:44.963Z,253.13
2022-10-15T09:42:44.892Z,225.00
2022-10-15T09:43:44.812Z,202.50
2022-10-15T09:44:44.738Z,157.50
2022-10-15T09:45:44.663Z,135.00
2022-10-15T09:46:44.586Z,123.75
2022-10-15T09:47:44.510Z,151.88
2022-10-15T09:48:44.437Z,146.25
2022-10-15T09:49:44.362Z,140.63
2022-10-15T09:50:44.285Z,146.25
2022-10-15T09:51:44.233Z,157.50
2022-10-15T09:52:44.137Z,163.13
2022-10-15T09:53:44.062Z,151.88
2022-10-15T09:54:43.988Z,123.75
2022-10-15T09:55:43.910Z,101.25
2022-10-15T09:56:43.836Z,101.25
2022-10-15T09:57:43.762Z,112.50
2022-10-15T09:58:43.684Z,90.00
2022-10-15T09:59:43.611Z,118.13
2022-10-15T10:00:43.539Z,123.75
2022-10-15T10:01:43.538Z,123.75
2022-10-15T10:02:43.468Z,140.63
2022-10-15T10:03:43.307Z,168.75
2022-10-15T10:04:43.234Z,191.25
2022-10-15T10:05:43.410Z,241.88
2022-10-15T10:06:43.081Z,241.88
2022-10-15T10:07:43.024Z,241.88
2022-10-15T10:08:42.993Z,219.38
2022-10-15T10:09:42.855Z,202.50
2022-10-15T10:10:45.972Z,196.88
2022-10-15T10:11:42.704Z,185.63
2022-10-15T10:12:42.628Z,180.00
2022-10-15T10:13:42.554Z,213.75
2022-10-15T10:14:42.477Z,230.63
2022-10-15T10:15:42.401Z,241.88
2022-10-15T10:16:42.328Z,225.00
2022-10-15T10:17:42.277Z,213.75
2022-10-15T10:18:42.187Z,202.50
2022-10-15T10:19:42.102Z,191.25
2022-10-15T10:20:42.028Z,174.38
2022-10-15T10:21:41.952Z,185.63
2022-10-15T10:22:41.875Z,208.13
2022-10-15T10:23:41.822Z,213.75
2022-10-15T10:24:41.727Z,213.75
2022-10-15T10:25:41.651Z,225.00
2022-10-15T10:26:41.579Z,196.88
2022-10-15T10:27:41.500Z,180.00
2022-10-15T10:28:44.173Z,180.00
2022-10-15T10:29:41.412Z,185.63
2022-10-15T10:30:41.275Z,202.50
2022-10-15T10:31:41.200Z,196.88
2022-10-15T10:32:41.127Z,202.50
